createdAt,value
2022-08-25T00:01:32.308Z,29.50
2022-08-25T00:04:07.596Z,29.30
2022-08-25T00:06:43.881Z,29.40
2022-08-25T00:09:19.118Z,29.40
2022-08-25T00:11:54.615Z,29.60
2022-08-25T00:14:30.340Z,29.60
2022-08-25T00:17:06.417Z,29.60
2022-08-25T00:19:41.782Z,29.40
2022-08-25T00:22:14.748Z,29.10
2022-08-25T00:24:48.192Z,29.10
2022-08-25T00:27:24.118Z,29.00
2022-08-25T00:29:57.662Z,29.10
2022-08-25T00:32:30.938Z,29.20
2022-08-25T00:35:05.240Z,29.20
2022-08-25T00:37:39.878Z,29.40
2022-08-25T00:40:14.352Z,29.50
2022-08-25T00:42:50.084Z,29.50
2022-08-25T00:45:25.825Z,29.70
2022-08-25T00:48:00.104Z,29.80
2022-08-25T00:50:35.743Z,29.60
2022-08-25T00:53:12.013Z,29.70
2022-08-25T00:55:46.459Z,29.70
2022-08-25T00:58:26.425Z,29.60
2022-08-25T01:01:02.315Z,29.70
2022-08-25T01:03:37.132Z,29.70
2022-08-25T01:06:11.706Z,29.70
2022-08-25T01:08:48.913Z,29.50
2022-08-25T01:11:23.563Z,29.80
2022-08-25T01:14:05.220Z,29.90
2022-08-25T01:16:40.059Z,29.90
2022-08-25T01:19:15.209Z,29.80
2022-08-25T01:21:55.742Z,30.20
2022-08-25T01:24:36.350Z,30.30
2022-08-25T01:27:10.937Z,30.20
2022-08-25T01:29:56.707Z,30.40
2022-08-25T01:32:30.883Z,30.70
2022-08-25T01:35:06.400Z,30.50
2022-08-25T01:37:42.588Z,30.80
2022-08-25T01:40:19.554Z,31.30
2022-08-25T01:43:02.734Z,31.60
2022-08-25T01:45:36.314Z,31.80
2022-08-25T01:48:11.791Z,31.70
2022-08-25T01:50:48.600Z,31.80
2022-08-25T01:53:42.289Z,31.50
2022-08-25T01:56:17.701Z,31.00
2022-08-25T01:58:53.230Z,31.20
2022-08-25T02:01:28.511Z,31.00
2022-08-25T02:04:02.538Z,30.90
2022-08-25T02:06:38.749Z,31.10
2022-08-25T02:09:19.054Z,31.10
2022-08-25T02:11:53.033Z,31.40
2022-08-25T02:14:27.732Z,31.60
2022-08-25T02:17:01.487Z,32.00
2022-08-25T02:19:35.425Z,32.00
2022-08-25T02:22:09.976Z,31.50
2022-08-25T02:24:45.115Z,31.00
2022-08-25T02:27:18.802Z,31.40
2022-08-25T02:29:52.446Z,31.50
2022-08-25T02:32:25.936Z,31.20
2022-08-25T02:34:59.517Z,30.70
2022-08-25T02:37:33.168Z,30.40
2022-08-25T02:40:16.151Z,30.40
2022-08-25T02:42:49.773Z,30.70
2022-08-25T02:45:23.631Z,30.40
2022-08-25T02:47:57.930Z,30.20
2022-08-25T02:50:33.460Z,30.60
2022-08-25T02:53:06.965Z,30.80
2022-08-25T02:55:43.395Z,30.90
2022-08-25T02:58:17.469Z,30.70
2022-08-25T03:00:54.499Z,31.30
2022-08-25T03:03:28.751Z,31.30
2022-08-25T03:06:02.825Z,31.60
2022-08-25T03:08:36.263Z,31.60
2022-08-25T03:11:12.910Z,32.10
2022-08-25T03:13:46.754Z,31.80
2022-08-25T03:16:23.986Z,31.70
2022-08-25T03:19:03.034Z,31.30
2022-08-25T03:21:41.152Z,31.40
2022-08-25T03:24:15.386Z,32.00
2022-08-25T03:26:55.938Z,32.50
2022-08-25T03:29:30.210Z,31.90
2022-08-25T03:32:05.422Z,32.00
2022-08-25T03:34:38.831Z,32.00
2022-08-25T03:37:12.824Z,32.20
2022-08-25T03:39:46.627Z,32.10
2022-08-25T03:42:22.201Z,31.20
2022-08-25T03:44:56.997Z,31.00
2022-08-25T03:47:30.931Z,31.40
2022-08-25T03:50:04.320Z,31.60
2022-08-25T03:52:42.411Z,31.10
2022-08-25T03:55:21.214Z,31.50
2022-08-25T03:57:57.942Z,30.70
2022-08-25T04:00:31.369Z,30.30
2022-08-25T04:03:05.308Z,30.20
2022-08-25T04:05:41.650Z,30.40
2022-08-25T04:08:15.673Z,30.00
2022-08-25T04:10:53.356Z,30.20
2022-08-25T04:13:29.331Z,30.30
2022-08-25T04:16:03.560Z,30.00
2022-08-25T04:18:37.063Z,30.30
2022-08-25T04:21:12.311Z,30.50
2022-08-25T04:23:47.996Z,30.60
2022-08-25T04:26:23.707Z,30.40
2022-08-25T04:29:01.277Z,30.60
2022-08-25T04:31:35.925Z,31.10
2022-08-25T04:34:29.490Z,31.20
2022-08-25T04:37:06.745Z,31.40
2022-08-25T04:39:40.767Z,30.60
2022-08-25T04:42:14.650Z,30.60
2022-08-25T04:44:51.255Z,30.60
2022-08-25T04:47:25.228Z,30.90
2022-08-25T04:50:02.830Z,30.60
2022-08-25T04:52:36.666Z,30.80
2022-08-25T04:55:10.772Z,31.00
2022-08-25T04:57:43.981Z,31.20
2022-08-25T05:00:21.040Z,30.70
2022-08-25T05:02:55.007Z,30.80
2022-08-25T05:05:29.181Z,30.60
2022-08-25T05:08:03.991Z,30.60
2022-08-25T05:10:38.039Z,31.00
2022-08-25T05:13:12.489Z,31.00
2022-08-25T05:15:55.237Z,30.80
2022-08-25T05:18:31.045Z,31.00
2022-08-25T05:21:08.854Z,31.00
2022-08-25T05:23:43.362Z,31.30
2022-08-25T05:26:20.379Z,31.20
2022-08-25T05:28:56.322Z,31.50
2022-08-25T05:31:33.393Z,31.60
2022-08-25T05:34:11.562Z,31.80
2022-08-25T05:36:45.280Z,31.50
2022-08-25T05:39:19.582Z,31.50
2022-08-25T05:41:53.296Z,30.90
2022-08-25T05:44:27.193Z,31.20
2022-08-25T05:47:03.196Z,31.70
2022-08-25T05:49:36.871Z,31.40
2022-08-25T05:52:12.511Z,31.30
2022-08-25T05:54:48.948Z,31.10
2022-08-25T05:57:23.052Z,31.30
2022-08-25T05:59:58.216Z,31.20
2022-08-25T06:02:47.937Z,31.10
2022-08-25T06:05:24.643Z,31.10
2022-08-25T06:07:58.026Z,30.90
2022-08-25T06:10:33.712Z,30.60
2022-08-25T06:13:07.662Z,30.50
2022-08-25T06:15:42.139Z,30.60
2022-08-25T06:18:20.045Z,30.50
2022-08-25T06:20:54.760Z,30.70
2022-08-25T06:23:41.435Z,30.60
2022-08-25T06:26:19.049Z,30.90
2022-08-25T06:28:55.475Z,30.80
2022-08-25T06:31:30.882Z,30.50
2022-08-25T06:34:07.291Z,30.30
2022-08-25T06:36:41.740Z,30.30
2022-08-25T06:39:15.772Z,30.30
2022-08-25T06:41:49.771Z,30.40
2022-08-25T06:44:25.030Z,30.30
2022-08-25T06:46:59.809Z,30.40
2022-08-25T06:49:36.342Z,30.50
2022-08-25T06:52:10.300Z,30.50
2022-08-25T06:54:44.543Z,30.70
2022-08-25T06:57:23.526Z,30.40
2022-08-25T07:00:00.953Z,30.70
2022-08-25T07:02:37.732Z,31.20
2022-08-25T07:05:27.021Z,31.30
2022-08-25T07:08:07.779Z,30.90
2022-08-25T07:10:41.563Z,30.90
2022-08-25T07:13:21.314Z,31.10
2022-08-25T07:16:00.755Z,30.50
2022-08-25T07:18:35.329Z,30.90
2022-08-25T07:21:16.086Z,31.00
2022-08-25T07:23:49.817Z,31.30
2022-08-25T07:26:41.104Z,31.30
2022-08-25T07:29:16.140Z,31.20
2022-08-25T07:31:55.400Z,31.10
2022-08-25T07:34:45.245Z,31.10
2022-08-25T07:37:47.968Z,31.10
2022-08-25T07:40:24.804Z,31.10
2022-08-25T07:43:05.294Z,30.80
2022-08-25T07:45:49.019Z,30.90
2022-08-25T07:48:23.775Z,31.00
2022-08-25T07:50:57.766Z,31.20
2022-08-25T07:53:34.028Z,31.20
2022-08-25T07:56:07.553Z,30.80
2022-08-25T07:58:42.448Z,30.70
2022-08-25T08:01:20.388Z,30.70
2022-08-25T08:03:54.759Z,30.50
2022-08-25T08:06:29.563Z,30.40
2022-08-25T08:09:04.797Z,30.50
2022-08-25T08:11:53.961Z,30.60
2022-08-25T08:14:27.725Z,30.80
2022-08-25T08:17:02.471Z,30.60
2022-08-25T08:19:37.102Z,30.60
2022-08-25T08:22:12.975Z,30.70
2022-08-25T08:24:54.158Z,30.50
2022-08-25T08:27:29.062Z,30.60
2022-08-25T08:30:02.429Z,30.70
2022-08-25T08:32:53.249Z,31.00
2022-08-25T08:35:30.302Z,31.10
2022-08-25T08:38:03.857Z,30.70
2022-08-25T08:41:08.355Z,30.50
2022-08-25T08:43:42.883Z,30.80
2022-08-25T08:46:16.744Z,30.90
2022-08-25T08:49:06.143Z,31.00
2022-08-25T08:51:49.027Z,30.90
2022-08-25T08:54:34.171Z,30.70
2022-08-25T08:57:13.694Z,30.50
2022-08-25T08:59:53.617Z,30.70
2022-08-25T09:02:39.208Z,30.40
2022-08-25T09:05:26.482Z,30.40
2022-08-25T09:08:03.574Z,30.60
2022-08-25T09:10:44.776Z,30.80
2022-08-25T09:13:31.361Z,30.80
2022-08-25T09:16:33.812Z,30.80
2022-08-25T09:19:23.549Z,30.70
2022-08-25T09:22:35.291Z,30.80
2022-08-25T09:25:08.799Z,30.80
2022-08-25T09:27:50.343Z,30.80
2022-08-25T09:30:27.626Z,30.70
2022-08-25T09:33:05.734Z,31.10
2022-08-25T09:35:40.414Z,31.30
2022-08-25T09:38:15.725Z,31.00
2022-08-25T09:40:52.370Z,31.00
2022-08-25T09:43:33.284Z,30.70
2022-08-25T09:46:15.369Z,30.70
2022-08-25T09:48:55.840Z,30.80
2022-08-25T09:51:38.215Z,30.80
2022-08-25T09:54:34.061Z,30.80
2022-08-25T09:57:34.002Z,30.80
2022-08-25T10:00:23.171Z,30.60
2022-08-25T10:03:17.048Z,30.60
2022-08-25T10:06:12.837Z,30.60
2022-08-25T10:08:59.963Z,30.70
2022-08-25T10:11:51.932Z,30.60
2022-08-25T10:14:38.189Z,30.60
2022-08-25T10:17:27.780Z,30.60
2022-08-25T10:20:21.221Z,30.50
2022-08-25T10:22:55.751Z,30.40
2022-08-25T10:25:38.022Z,30.30
2022-08-25T10:28:19.745Z,30.30
2022-08-25T10:31:09.733Z,30.40
2022-08-25T10:33:55.989Z,30.40
2022-08-25T10:36:41.214Z,30.40
2022-08-25T10:39:36.467Z,30.00
2022-08-25T10:42:26.194Z,30.00
2022-08-25T10:45:30.759Z,30.20
2022-08-25T10:48:22.561Z,30.00
2022-08-25T10:51:04.626Z,30.00
2022-08-25T10:53:52.318Z,30.00
2022-08-25T10:56:40.835Z,29.90
2022-08-25T10:59:33.307Z,29.80
2022-08-25T11:02:41.379Z,29.80
2022-08-25T11:05:24.694Z,29.90
2022-08-25T11:08:07.928Z,29.60
2022-08-25T11:10:48.873Z,29.70
2022-08-25T11:13:29.744Z,29.70
2022-08-25T11:16:19.900Z,29.80
2022-08-25T11:19:02.421Z,29.90
2022-08-25T11:21:51.619Z,29.90
2022-08-25T11:24:59.178Z,29.80
2022-08-25T11:27:41.017Z,29.60
2022-08-25T11:30:18.834Z,29.60
2022-08-25T11:32:54.669Z,29.70
2022-08-25T11:35:35.144Z,29.70
2022-08-25T11:38:29.404Z,29.70
2022-08-25T11:41:31.295Z,29.60
2022-08-25T11:44:22.619Z,29.70
2022-08-25T11:47:21.332Z,29.60
2022-08-25T11:50:02.276Z,29.50
2022-08-25T11:52:51.388Z,29.40
2022-08-25T11:55:31.483Z,29.40
2022-08-25T11:58:38.431Z,29.40
2022-08-25T12:01:36.775Z,29.30
2022-08-25T12:04:35.591Z,29.20
2022-08-25T12:07:28.185Z,29.20
2022-08-25T12:14:57.989Z,29.20
2022-08-25T12:17:43.244Z,29.10
2022-08-25T12:20:17.059Z,29.00
2022-08-25T12:23:01.444Z,29.00
2022-08-25T12:26:04.130Z,29.00
2022-08-25T12:28:48.256Z,29.10
2022-08-25T12:31:48.487Z,29.10
2022-08-25T12:34:41.463Z,29.10
2022-08-25T12:37:19.988Z,29.10
2022-08-25T12:40:02.964Z,29.10
2022-08-25T12:42:40.204Z,28.90
2022-08-25T12:45:18.343Z,28.90
2022-08-25T12:47:53.211Z,29.00
2022-08-25T12:50:45.120Z,28.90
2022-08-25T12:53:28.489Z,28.90
2022-08-25T12:56:09.636Z,28.90
2022-08-25T12:59:07.627Z,29.00
2022-08-25T13:02:07.182Z,29.00
2022-08-25T13:05:10.069Z,29.00
2022-08-25T13:08:15.152Z,28.80
2022-08-25T13:10:55.624Z,28.90
2022-08-25T13:13:44.295Z,28.80
2022-08-25T13:16:28.929Z,28.80
2022-08-25T13:19:09.665Z,28.90
2022-08-25T13:21:54.874Z,28.70
2022-08-25T13:24:40.353Z,28.70
2022-08-25T13:27:24.827Z,28.70
2022-08-25T13:30:03.832Z,28.70
2022-08-25T13:32:43.229Z,28.70
2022-08-25T13:35:22.062Z,28.70
2022-08-25T13:37:55.445Z,28.80
2022-08-25T13:40:35.266Z,28.70
2022-08-25T13:43:13.400Z,28.70
2022-08-25T13:45:50.385Z,28.70
2022-08-25T13:48:49.689Z,28.70
2022-08-25T13:51:34.749Z,28.70
2022-08-25T13:54:13.304Z,28.70
2022-08-25T13:56:53.573Z,28.70
2022-08-25T13:59:34.818Z,28.80
2022-08-25T14:02:19.656Z,28.90
2022-08-25T14:04:58.194Z,29.00
2022-08-25T14:07:35.498Z,28.90
2022-08-25T14:10:16.587Z,29.00
2022-08-25T14:13:11.767Z,29.10
2022-08-25T14:15:52.194Z,29.10
2022-08-25T14:18:38.365Z,29.00
2022-08-25T14:21:16.131Z,29.00
2022-08-25T14:23:52.323Z,28.90
2022-08-25T14:26:27.244Z,28.90
2022-08-25T14:29:04.269Z,29.00
2022-08-25T14:31:45.716Z,28.90
2022-08-25T14:34:25.752Z,28.80
2022-08-25T14:37:03.881Z,28.80
2022-08-25T14:39:38.856Z,28.90
2022-08-25T14:42:27.897Z,28.80
2022-08-25T14:45:04.661Z,28.80
2022-08-25T14:47:46.193Z,28.80
2022-08-25T14:50:35.955Z,28.70
2022-08-25T14:53:10.655Z,28.70
2022-08-25T14:55:48.004Z,28.80
2022-08-25T14:58:25.769Z,28.70
2022-08-25T15:01:05.069Z,28.70
2022-08-25T15:06:33.544Z,28.70
2022-08-25T15:09:14.927Z,28.90
2022-08-25T15:14:47.659Z,28.90
2022-08-25T15:17:44.480Z,28.80
2022-08-25T15:20:20.881Z,28.80
2022-08-25T15:22:56.104Z,28.70
2022-08-25T15:25:33.819Z,28.70
2022-08-25T15:28:11.935Z,28.70
2022-08-25T15:30:55.340Z,28.70
2022-08-25T15:33:31.537Z,28.80
2022-08-25T15:36:24.537Z,28.80
2022-08-25T15:39:06.305Z,28.80
2022-08-25T15:41:40.495Z,28.80
2022-08-25T15:44:32.406Z,28.80
2022-08-25T15:47:06.829Z,28.80
2022-08-25T15:49:49.030Z,28.80
2022-08-25T15:52:28.161Z,28.80
2022-08-25T15:55:02.618Z,28.70
2022-08-25T15:57:43.677Z,28.70
2022-08-25T16:00:25.991Z,28.70
2022-08-25T16:03:01.042Z,28.70
2022-08-25T16:05:37.251Z,28.70
2022-08-25T16:08:19.124Z,28.70
2022-08-25T16:10:54.281Z,28.70
2022-08-25T16:13:30.793Z,28.60
2022-08-25T16:16:08.944Z,28.60
2022-08-25T16:18:45.037Z,28.60
2022-08-25T16:21:29.012Z,28.60
2022-08-25T16:24:08.275Z,28.70
2022-08-25T16:26:48.693Z,28.70
2022-08-25T16:29:24.164Z,28.80
2022-08-25T16:31:59.144Z,28.70
2022-08-25T16:34:44.913Z,28.60
2022-08-25T16:37:22.955Z,28.80
2022-08-25T16:39:59.825Z,28.80
2022-08-25T16:42:35.229Z,28.80
2022-08-25T16:45:10.061Z,28.80
2022-08-25T16:47:45.580Z,28.70
2022-08-25T16:50:20.130Z,28.60
2022-08-25T16:53:15.453Z,28.60
2022-08-25T16:55:50.624Z,28.60
2022-08-25T16:58:26.388Z,28.50
2022-08-25T17:01:09.529Z,28.50
2022-08-25T17:03:45.805Z,28.50
2022-08-25T17:06:21.088Z,28.50
2022-08-25T17:08:57.524Z,28.40
2022-08-25T17:11:33.696Z,28.40
2022-08-25T17:14:11.144Z,28.40
2022-08-25T17:16:45.882Z,28.50
2022-08-25T17:19:22.587Z,28.40
2022-08-25T17:22:00.102Z,28.50
2022-08-25T17:24:35.572Z,28.50
2022-08-25T17:27:09.043Z,28.50
2022-08-25T17:29:45.051Z,28.40
2022-08-25T17:32:20.851Z,28.30
2022-08-25T17:35:04.346Z,28.20
2022-08-25T17:37:37.658Z,28.10
2022-08-25T17:40:15.321Z,27.90
2022-08-25T17:42:48.840Z,27.80
2022-08-25T17:45:25.429Z,27.50
2022-08-25T17:47:59.581Z,27.50
2022-08-25T17:50:34.219Z,27.60
2022-08-25T17:53:08.042Z,27.40
2022-08-25T17:55:46.080Z,27.50
2022-08-25T17:58:21.233Z,27.50
2022-08-25T18:00:55.481Z,27.40
2022-08-25T18:03:29.614Z,27.40
2022-08-25T18:06:03.923Z,27.40
2022-08-25T18:08:37.611Z,27.40
2022-08-25T18:11:13.023Z,27.50
2022-08-25T18:13:46.888Z,27.60
2022-08-25T18:16:20.379Z,27.60
2022-08-25T18:18:54.236Z,27.70
2022-08-25T18:21:30.355Z,27.80
2022-08-25T18:24:06.032Z,27.80
2022-08-25T18:26:46.169Z,27.80
2022-08-25T18:29:19.976Z,27.80
2022-08-25T18:31:57.150Z,27.70
2022-08-25T18:34:33.318Z,27.60
2022-08-25T18:37:22.524Z,27.60
2022-08-25T18:40:13.142Z,27.40
2022-08-25T18:42:49.852Z,27.30
2022-08-25T18:45:24.667Z,26.80
2022-08-25T18:48:00.313Z,26.70
2022-08-25T18:50:37.032Z,26.60
2022-08-25T18:53:11.130Z,26.30
2022-08-25T18:55:46.541Z,25.80
2022-08-25T18:58:23.033Z,25.20
2022-08-25T19:01:06.368Z,24.60
2022-08-25T19:03:40.249Z,24.10
2022-08-25T19:06:14.109Z,24.00
2022-08-25T19:08:47.486Z,24.10
2022-08-25T19:11:22.184Z,24.00
2022-08-25T19:13:58.612Z,24.00
2022-08-25T19:16:41.584Z,24.00
2022-08-25T19:19:16.228Z,24.10
2022-08-25T19:21:50.938Z,24.00
2022-08-25T19:24:25.372Z,24.10
2022-08-25T19:26:58.563Z,24.30
2022-08-25T19:29:37.593Z,24.50
2022-08-25T19:32:11.296Z,24.70
2022-08-25T19:34:51.521Z,24.80
2022-08-25T19:37:26.715Z,24.90
2022-08-25T19:40:01.010Z,24.90
2022-08-25T19:42:38.394Z,25.10
2022-08-25T19:45:18.774Z,25.10
2022-08-25T19:47:52.903Z,25.20
2022-08-25T19:50:27.934Z,25.10
2022-08-25T19:53:01.688Z,25.10
2022-08-25T19:55:36.063Z,25.20
2022-08-25T19:58:09.884Z,25.10
2022-08-25T20:00:49.465Z,25.20
2022-08-25T20:03:24.942Z,25.10
2022-08-25T20:05:58.867Z,25.20
2022-08-25T20:08:34.542Z,25.10
2022-08-25T20:11:08.614Z,25.30
2022-08-25T20:13:42.492Z,25.50
2022-08-25T20:16:19.084Z,25.50
2022-08-25T20:18:53.411Z,25.30
2022-08-25T20:21:28.361Z,25.30
2022-08-25T20:24:20.779Z,25.10
2022-08-25T20:26:54.551Z,24.80
2022-08-25T20:29:29.836Z,24.80
2022-08-25T20:32:04.319Z,24.90
2022-08-25T20:34:38.032Z,24.80
2022-08-25T20:37:13.220Z,25.00
2022-08-25T20:39:47.121Z,25.20
2022-08-25T20:42:21.121Z,25.30
2022-08-25T20:44:55.016Z,25.20
2022-08-25T20:47:30.261Z,25.20
2022-08-25T20:50:06.522Z,25.10
2022-08-25T20:52:42.522Z,25.10
2022-08-25T20:55:19.126Z,25.20
2022-08-25T20:57:53.229Z,25.30
2022-08-25T21:00:27.066Z,25.40
2022-08-25T21:03:06.143Z,25.40
2022-08-25T21:05:44.089Z,25.30
2022-08-25T21:08:17.168Z,25.30
2022-08-25T21:10:52.668Z,25.30
2022-08-25T21:13:26.148Z,25.40
2022-08-25T21:15:59.219Z,25.40
2022-08-25T21:18:38.625Z,25.40
2022-08-25T21:21:18.145Z,25.40
2022-08-25T21:23:54.139Z,25.40
2022-08-25T21:26:28.723Z,25.30
2022-08-25T21:29:04.529Z,25.30
2022-08-25T21:31:39.374Z,25.30
2022-08-25T21:34:16.002Z,25.30
2022-08-25T21:36:52.617Z,25.10
2022-08-25T21:39:28.035Z,25.20
2022-08-25T21:42:02.038Z,25.30
2022-08-25T21:44:35.414Z,24.90
2022-08-25T21:47:12.407Z,24.90
2022-08-25T21:49:47.317Z,25.10
2022-08-25T21:52:22.320Z,25.20
2022-08-25T21:54:58.047Z,25.30
2022-08-25T21:57:32.004Z,25.30
2022-08-25T22:00:06.415Z,25.40
2022-08-25T22:02:44.857Z,25.40
2022-08-25T22:05:20.442Z,25.30
2022-08-25T22:07:54.619Z,25.40
2022-08-25T22:10:32.902Z,25.60
2022-08-25T22:13:07.011Z,25.50
2022-08-25T22:15:40.827Z,25.40
2022-08-25T22:18:14.591Z,25.50
2022-08-25T22:20:49.912Z,25.40
2022-08-25T22:23:23.586Z,25.40
2022-08-25T22:26:01.882Z,25.40
2022-08-25T22:28:38.371Z,25.40
2022-08-25T22:31:20.745Z,25.30
2022-08-25T22:33:55.772Z,25.40
2022-08-25T22:36:36.175Z,25.50
2022-08-25T22:39:12.006Z,25.50
2022-08-25T22:41:46.891Z,25.60
2022-08-25T22:44:20.164Z,25.50
2022-08-25T22:46:54.183Z,25.60
2022-08-25T22:49:27.479Z,25.50
2022-08-25T22:52:03.107Z,25.40
2022-08-25T22:54:36.724Z,25.50
2022-08-25T22:57:10.853Z,25.50
2022-08-25T22:59:44.268Z,25.60
2022-08-25T23:02:17.463Z,25.50
2022-08-25T23:04:55.304Z,25.60
2022-08-25T23:07:31.090Z,25.60
2022-08-25T23:10:08.181Z,25.60
2022-08-25T23:12:43.815Z,25.50
2022-08-25T23:15:19.159Z,25.50
2022-08-25T23:17:52.605Z,25.60
2022-08-25T23:20:45.041Z,25.60
2022-08-25T23:23:24.006Z,25.50
2022-08-25T23:25:58.418Z,25.70
2022-08-25T23:28:32.659Z,25.70
2022-08-25T23:31:11.455Z,25.60
2022-08-25T23:33:45.329Z,25.80
2022-08-25T23:36:22.494Z,25.90
2022-08-25T23:38:59.547Z,25.80
2022-08-25T23:41:33.144Z,25.80
2022-08-25T23:44:11.455Z,25.70
2022-08-25T23:46:47.077Z,25.80
2022-08-25T23:49:22.857Z,25.70
2022-08-25T23:51:58.240Z,25.80
2022-08-25T23:54:33.416Z,25.90
2022-08-25T23:57:07.113Z,25.90
2022-08-25T23:59:43.268Z,26.00
